createdAt,value
2024-05-09T00:03:46.858Z,0
2024-05-09T00:05:46.764Z,0
2024-05-09T00:06:46.767Z,0
2024-05-09T00:07:46.890Z,0
2024-05-09T00:08:46.807Z,0
2024-05-09T00:09:46.885Z,0
2024-05-09T00:10:46.781Z,0
2024-05-09T00:11:46.941Z,0
2024-05-09T00:12:47.046Z,0
2024-05-09T00:15:46.832Z,0
2024-05-09T00:16:46.941Z,0
2024-05-09T00:17:47.006Z,0
2024-05-09T00:18:47.146Z,0
2024-05-09T00:19:47.167Z,0
2024-05-09T00:20:47.204Z,0
2024-05-09T00:21:47.010Z,0
2024-05-09T00:22:47.067Z,0
2024-05-09T00:23:47.009Z,0
2024-05-09T00:24:47.234Z,0
2024-05-09T00:27:47.369Z,0
2024-05-09T00:28:47.103Z,0
2024-05-09T00:29:47.155Z,0
2024-05-09T00:30:47.174Z,0
2024-05-09T00:33:47.247Z,0
2024-05-09T00:34:47.211Z,0
2024-05-09T00:37:47.231Z,0
2024-05-09T00:38:47.344Z,0
2024-05-09T00:39:47.228Z,0
2024-05-09T00:40:47.401Z,0
2024-05-09T00:41:47.132Z,0
2024-05-09T00:42:47.116Z,0
2024-05-09T00:43:47.193Z,0
2024-05-09T00:44:47.114Z,0
2024-05-09T00:45:47.279Z,0
2024-05-09T00:46:47.359Z,0
2024-05-09T00:48:47.339Z,0
2024-05-09T00:51:47.450Z,0
2024-05-09T00:52:47.470Z,0
2024-05-09T00:53:47.322Z,0
2024-05-09T00:54:47.374Z,0
2024-05-09T00:55:47.660Z,0
2024-05-09T00:56:47.565Z,0
2024-05-09T00:57:47.472Z,0
2024-05-09T00:58:47.506Z,0
2024-05-09T00:59:47.403Z,0
2024-05-09T01:00:47.505Z,0
2024-05-09T01:01:47.455Z,0
2024-05-09T01:02:47.673Z,0
2024-05-09T01:03:49.609Z,0
2024-05-09T01:04:48.495Z,0
2024-05-09T01:05:47.550Z,0
2024-05-09T01:07:47.432Z,0
2024-05-09T01:08:47.532Z,0
2024-05-09T01:09:47.462Z,0
2024-05-09T01:10:48.517Z,0
2024-05-09T01:11:47.759Z,0
2024-05-09T01:13:47.584Z,0
2024-05-09T01:14:47.656Z,0
2024-05-09T01:15:47.575Z,0
2024-05-09T01:16:47.548Z,0
2024-05-09T01:17:47.836Z,0
2024-05-09T01:18:47.725Z,0
2024-05-09T01:21:47.547Z,0
2024-05-09T01:22:47.604Z,0
2024-05-09T01:23:47.670Z,0
2024-05-09T01:24:47.469Z,0
2024-05-09T01:25:47.660Z,0
2024-05-09T01:26:47.649Z,0
2024-05-09T01:27:47.495Z,0
2024-05-09T01:28:47.620Z,0
2024-05-09T01:29:47.437Z,0
2024-05-09T01:30:47.737Z,0
2024-05-09T01:32:47.731Z,0
2024-05-09T01:33:47.737Z,0
2024-05-09T01:34:47.653Z,0
2024-05-09T01:35:47.655Z,0
2024-05-09T01:36:47.505Z,0
2024-05-09T01:37:47.563Z,0
2024-05-09T01:38:47.590Z,0
2024-05-09T01:39:47.700Z,0
2024-05-09T01:40:47.610Z,0
2024-05-09T01:41:47.805Z,0
2024-05-09T01:45:47.679Z,0
2024-05-09T01:46:47.685Z,0
2024-05-09T01:47:47.930Z,0
2024-05-09T01:48:47.889Z,0
2024-05-09T01:49:47.782Z,0
2024-05-09T01:50:47.808Z,0
2024-05-09T01:51:47.994Z,0
2024-05-09T01:53:47.855Z,0
2024-05-09T01:54:47.971Z,0
2024-05-09T01:55:47.928Z,0
2024-05-09T01:56:47.859Z,0
2024-05-09T01:57:47.857Z,0
2024-05-09T01:58:49.058Z,0
2024-05-09T01:59:47.793Z,0
2024-05-09T02:00:47.997Z,0
2024-05-09T02:01:55.122Z,0
2024-05-09T02:02:49.116Z,0
2024-05-09T02:03:48.154Z,0
2024-05-09T02:04:48.071Z,0
2024-05-09T02:05:48.209Z,0
2024-05-09T02:06:47.900Z,0
2024-05-09T02:07:47.998Z,0
2024-05-09T02:08:47.971Z,0
2024-05-09T02:09:48.152Z,0
2024-05-09T02:10:48.374Z,0
2024-05-09T02:11:48.173Z,0
2024-05-09T02:12:48.086Z,0
2024-05-09T02:15:48.010Z,0
2024-05-09T02:16:48.018Z,0
2024-05-09T02:17:48.181Z,0
2024-05-09T02:18:48.143Z,0
2024-05-09T02:19:48.196Z,0
2024-05-09T02:22:48.310Z,0
2024-05-09T02:23:48.172Z,0
2024-05-09T02:24:48.084Z,0
2024-05-09T02:25:48.178Z,0
2024-05-09T02:26:48.195Z,0
2024-05-09T02:29:48.263Z,0
2024-05-09T02:30:48.113Z,0
2024-05-09T02:31:48.415Z,0
2024-05-09T02:32:48.273Z,0
2024-05-09T02:33:48.272Z,0
2024-05-09T02:34:48.352Z,0
2024-05-09T02:35:48.268Z,0
2024-05-09T02:36:48.102Z,0
2024-05-09T02:37:48.164Z,0
2024-05-09T02:38:48.173Z,0
2024-05-09T02:41:48.161Z,0
2024-05-09T02:42:48.235Z,0
2024-05-09T02:43:48.341Z,0
2024-05-09T02:44:48.121Z,0
2024-05-09T02:45:48.222Z,0
2024-05-09T02:47:48.463Z,0
2024-05-09T02:48:48.565Z,0
2024-05-09T02:49:48.243Z,0
2024-05-09T02:52:48.342Z,0
2024-05-09T02:53:48.332Z,0
2024-05-09T02:54:48.242Z,0
2024-05-09T02:55:48.297Z,0
2024-05-09T02:56:48.304Z,0
2024-05-09T02:57:48.417Z,0
2024-05-09T02:58:48.395Z,0
2024-05-09T02:59:48.286Z,0
2024-05-09T03:00:48.354Z,0
2024-05-09T03:01:48.374Z,0
2024-05-09T03:02:48.507Z,0
2024-05-09T03:03:48.593Z,1
2024-05-09T03:04:48.568Z,1
2024-05-09T03:05:48.543Z,0
2024-05-09T03:06:48.434Z,0
2024-05-09T03:07:48.555Z,1
2024-05-09T03:08:48.465Z,1
2024-05-09T03:09:48.506Z,1
2024-05-09T03:10:48.422Z,1
2024-05-09T03:11:48.667Z,1
2024-05-09T03:12:48.624Z,1
2024-05-09T03:15:48.520Z,2
2024-05-09T03:16:48.624Z,2
2024-05-09T03:17:48.625Z,2
2024-05-09T03:18:48.643Z,4
2024-05-09T03:19:48.896Z,4
2024-05-09T03:20:48.472Z,5
2024-05-09T03:21:48.541Z,5
2024-05-09T03:22:48.602Z,6
2024-05-09T03:23:49.638Z,7
2024-05-09T03:24:48.652Z,7
2024-05-09T03:25:48.764Z,8
2024-05-09T03:26:48.574Z,9
2024-05-09T03:27:48.701Z,11
2024-05-09T03:29:48.700Z,14
2024-05-09T03:30:48.775Z,15
2024-05-09T03:31:48.723Z,17
2024-05-09T03:32:48.921Z,19
2024-05-09T03:33:49.001Z,22
2024-05-09T03:34:48.886Z,24
2024-05-09T03:35:49.391Z,26
2024-05-09T03:36:49.844Z,28
2024-05-09T03:38:48.677Z,34
2024-05-09T03:39:48.841Z,38
2024-05-09T03:40:49.264Z,42
2024-05-09T03:41:48.686Z,46
2024-05-09T03:42:48.833Z,49
2024-05-09T03:43:48.820Z,53
2024-05-09T03:44:48.931Z,58
2024-05-09T03:45:48.815Z,63
2024-05-09T03:46:48.962Z,69
2024-05-09T03:47:48.995Z,73
2024-05-09T03:48:49.000Z,80
2024-05-09T03:49:48.905Z,85
2024-05-09T03:50:49.018Z,91
2024-05-09T03:54:48.904Z,114
2024-05-09T03:55:49.081Z,121
2024-05-09T03:56:48.972Z,126
2024-05-09T03:57:48.925Z,133
2024-05-09T03:58:49.024Z,141
2024-05-09T03:59:48.819Z,147
2024-05-09T04:00:48.963Z,155
2024-05-09T04:01:49.282Z,163
2024-05-09T04:04:49.221Z,184
2024-05-09T04:05:49.152Z,191
2024-05-09T04:06:49.183Z,198
2024-05-09T04:09:49.097Z,219
2024-05-09T04:10:49.248Z,225
2024-05-09T04:11:49.211Z,231
2024-05-09T04:12:49.169Z,238
2024-05-09T04:13:49.208Z,244
2024-05-09T04:14:49.029Z,251
2024-05-09T04:15:49.131Z,256
2024-05-09T04:16:49.439Z,262
2024-05-09T04:17:49.624Z,269
2024-05-09T04:18:49.502Z,274
2024-05-09T04:19:49.038Z,280
2024-05-09T04:20:49.346Z,287
2024-05-09T04:21:49.198Z,293
2024-05-09T04:22:49.297Z,301
2024-05-09T04:23:49.333Z,307
2024-05-09T04:24:49.183Z,313
2024-05-09T04:25:49.400Z,318
2024-05-09T04:26:49.345Z,324
2024-05-09T04:28:49.372Z,336
2024-05-09T04:29:49.131Z,342
2024-05-09T04:30:49.256Z,348
2024-05-09T04:31:49.606Z,354
2024-05-09T04:34:49.253Z,373
2024-05-09T04:35:49.459Z,379
2024-05-09T04:36:49.271Z,383
2024-05-09T04:37:49.288Z,392
2024-05-09T04:40:49.327Z,408
2024-05-09T04:41:49.296Z,414
2024-05-09T04:42:49.331Z,420
2024-05-09T04:43:49.227Z,421
2024-05-09T04:44:49.355Z,429
2024-05-09T04:45:50.338Z,438
2024-05-09T04:47:49.561Z,444
2024-05-09T04:49:49.346Z,455
2024-05-09T04:50:49.413Z,461
2024-05-09T04:51:49.312Z,467
2024-05-09T04:52:49.387Z,472
2024-05-09T04:53:49.386Z,474
2024-05-09T04:55:49.467Z,483
2024-05-09T04:56:49.605Z,487
2024-05-09T04:58:49.478Z,496
2024-05-09T04:59:49.486Z,499
2024-05-09T05:00:49.557Z,500
2024-05-09T05:01:50.518Z,501
2024-05-09T05:02:49.538Z,504
2024-05-09T05:03:49.730Z,509
2024-05-09T05:04:49.654Z,512
2024-05-09T05:05:50.557Z,514
2024-05-09T05:07:49.478Z,520
2024-05-09T05:08:49.452Z,523
2024-05-09T05:09:49.511Z,523
2024-05-09T05:10:49.884Z,534
2024-05-09T05:11:49.704Z,533
2024-05-09T05:12:49.618Z,538
2024-05-09T05:13:49.653Z,538
2024-05-09T05:14:49.656Z,540
2024-05-09T05:15:49.693Z,543
2024-05-09T05:16:49.708Z,544
2024-05-09T05:17:50.032Z,546
2024-05-09T05:18:49.815Z,545
2024-05-09T05:19:49.949Z,548
2024-05-09T05:20:49.786Z,548
2024-05-09T05:21:49.742Z,550
2024-05-09T05:22:49.859Z,552
2024-05-09T05:23:49.898Z,551
2024-05-09T05:24:49.745Z,553
2024-05-09T05:25:50.138Z,552
2024-05-09T05:26:49.767Z,554
2024-05-09T05:27:49.792Z,557
2024-05-09T05:28:49.760Z,557
2024-05-09T05:29:49.817Z,560
2024-05-09T05:30:50.145Z,561
2024-05-09T05:31:49.865Z,563
2024-05-09T05:32:49.909Z,565
2024-05-09T05:33:49.844Z,567
2024-05-09T05:34:50.010Z,568
2024-05-09T05:36:49.799Z,572
2024-05-09T05:37:50.023Z,570
2024-05-09T05:38:49.905Z,573
2024-05-09T05:39:49.779Z,577
2024-05-09T05:40:49.800Z,581
2024-05-09T05:41:49.898Z,581
2024-05-09T05:42:49.944Z,585
2024-05-09T05:43:49.859Z,588
2024-05-09T05:44:49.891Z,592
2024-05-09T05:45:50.075Z,593
2024-05-09T05:46:50.094Z,595
2024-05-09T05:47:50.339Z,598
2024-05-09T05:48:50.143Z,599
2024-05-09T05:49:49.965Z,598
2024-05-09T05:50:49.972Z,601
2024-05-09T05:51:49.947Z,604
2024-05-09T05:54:49.815Z,603
2024-05-09T05:55:50.220Z,603
2024-05-09T05:56:50.145Z,605
2024-05-09T05:57:50.062Z,604
2024-05-09T05:58:50.293Z,606
2024-05-09T05:59:49.979Z,605
2024-05-09T06:00:50.986Z,605
2024-05-09T06:01:50.216Z,608
2024-05-09T06:03:50.368Z,608
2024-05-09T06:04:50.182Z,613
2024-05-09T06:07:50.135Z,631
2024-05-09T06:08:50.293Z,635
2024-05-09T06:09:50.501Z,635
2024-05-09T06:10:50.327Z,636
2024-05-09T06:11:50.201Z,637
2024-05-09T06:12:50.174Z,635
2024-05-09T06:13:50.211Z,632
2024-05-09T06:14:50.171Z,631
2024-05-09T06:15:50.236Z,628
2024-05-09T06:16:50.252Z,631
2024-05-09T06:17:51.259Z,635
2024-05-09T06:18:50.579Z,636
2024-05-09T06:19:50.459Z,638
2024-05-09T06:20:50.405Z,639
2024-05-09T06:21:50.327Z,639
2024-05-09T06:22:50.467Z,642
2024-05-09T06:23:50.450Z,644
2024-05-09T06:25:50.238Z,638
2024-05-09T06:26:50.442Z,629
2024-05-09T06:27:50.371Z,618
2024-05-09T06:28:50.537Z,617
2024-05-09T06:29:50.528Z,621
2024-05-09T06:30:50.471Z,628
2024-05-09T06:31:50.481Z,634
2024-05-09T06:32:50.629Z,633
2024-05-09T06:33:50.636Z,632
2024-05-09T06:34:50.483Z,632
2024-05-09T06:35:50.618Z,635
2024-05-09T06:36:50.648Z,635
2024-05-09T06:37:50.582Z,634
2024-05-09T06:38:50.568Z,635
2024-05-09T06:39:50.468Z,629
2024-05-09T06:40:50.628Z,632
2024-05-09T06:41:50.682Z,637
2024-05-09T06:42:50.694Z,635
2024-05-09T06:43:50.720Z,638
2024-05-09T06:44:50.815Z,639
2024-05-09T06:45:50.732Z,641
2024-05-09T06:46:50.783Z,633
2024-05-09T06:47:52.463Z,635
2024-05-09T06:48:50.910Z,629
2024-05-09T06:49:50.992Z,632
2024-05-09T06:50:51.324Z,634
2024-05-09T06:51:50.657Z,635
2024-05-09T06:52:50.706Z,638
2024-05-09T06:53:50.816Z,636
2024-05-09T06:54:50.820Z,636
2024-05-09T06:55:50.853Z,628
2024-05-09T06:56:50.702Z,635
2024-05-09T06:57:50.801Z,633
2024-05-09T06:58:50.918Z,633
2024-05-09T06:59:50.808Z,631
2024-05-09T07:01:50.744Z,648
2024-05-09T07:02:50.972Z,651
2024-05-09T07:03:50.931Z,655
2024-05-09T07:04:50.870Z,656
2024-05-09T07:05:50.850Z,658
2024-05-09T07:06:50.768Z,658
2024-05-09T07:07:50.886Z,662
2024-05-09T07:09:50.839Z,665
2024-05-09T07:10:50.933Z,664
2024-05-09T07:11:50.862Z,667
2024-05-09T07:12:50.979Z,666
2024-05-09T07:14:50.823Z,667
2024-05-09T07:15:50.896Z,667
2024-05-09T07:16:50.959Z,666
2024-05-09T07:17:51.013Z,674
2024-05-09T07:18:51.123Z,676
2024-05-09T07:19:50.985Z,676
2024-05-09T07:20:51.259Z,677
2024-05-09T07:21:50.984Z,679
2024-05-09T07:22:51.022Z,679
2024-05-09T07:23:50.938Z,680
2024-05-09T07:27:50.825Z,685
2024-05-09T07:28:50.917Z,681
2024-05-09T07:29:50.988Z,682
2024-05-09T07:30:51.106Z,691
2024-05-09T07:31:51.034Z,698
2024-05-09T07:32:51.098Z,700
2024-05-09T07:35:51.296Z,706
2024-05-09T07:36:51.008Z,705
2024-05-09T07:37:51.182Z,707
2024-05-09T07:38:51.150Z,709
2024-05-09T07:39:51.117Z,712
2024-05-09T07:40:51.320Z,715
2024-05-09T07:41:51.197Z,716
2024-05-09T07:42:51.259Z,716
2024-05-09T07:44:51.090Z,718
2024-05-09T07:45:52.983Z,719
2024-05-09T07:47:36.173Z,721
2024-05-09T07:50:35.747Z,731
2024-05-09T07:51:47.524Z,736
2024-05-09T07:52:49.221Z,739
2024-05-09T07:53:27.721Z,744
2024-05-09T07:53:53.460Z,750
2024-05-09T07:54:52.425Z,753
2024-05-09T07:55:51.233Z,754
2024-05-09T07:58:51.733Z,760
2024-05-09T07:59:51.175Z,761
2024-05-09T08:00:51.251Z,764
2024-05-09T08:01:51.556Z,760
2024-05-09T08:02:51.255Z,766
2024-05-09T08:03:51.198Z,766
2024-05-09T08:04:51.287Z,771
2024-05-09T08:05:51.468Z,773
2024-05-09T08:06:51.294Z,776
2024-05-09T08:07:51.167Z,773
2024-05-09T08:10:51.287Z,778
2024-05-09T08:11:51.482Z,780
2024-05-09T08:12:51.620Z,784
2024-05-09T08:13:51.331Z,790
2024-05-09T08:14:51.206Z,794
2024-05-09T08:15:51.331Z,799
2024-05-09T08:16:51.338Z,806
2024-05-09T08:17:51.637Z,811
2024-05-09T08:20:51.476Z,827
2024-05-09T08:21:51.432Z,829
2024-05-09T08:22:51.499Z,836
2024-05-09T08:23:51.241Z,840
2024-05-09T08:24:51.498Z,847
2024-05-09T08:25:51.336Z,847
2024-05-09T08:26:51.420Z,857
2024-05-09T08:27:51.398Z,860
2024-05-09T08:28:51.268Z,865
2024-05-09T08:29:51.515Z,866
2024-05-09T08:30:51.662Z,866
2024-05-09T08:31:51.780Z,873
2024-05-09T08:32:51.616Z,886
2024-05-09T08:33:51.585Z,896
2024-05-09T08:34:51.543Z,904
2024-05-09T08:35:51.577Z,912
2024-05-09T08:38:51.597Z,929
2024-05-09T08:39:51.566Z,939
2024-05-09T08:40:51.703Z,944
2024-05-09T08:41:51.506Z,943
2024-05-09T08:42:51.921Z,952
2024-05-09T08:44:51.693Z,962
2024-05-09T08:45:51.724Z,964
2024-05-09T08:48:51.684Z,960
2024-05-09T08:49:51.588Z,964
2024-05-09T08:50:51.817Z,970
2024-05-09T08:51:51.795Z,965
2024-05-09T08:54:51.752Z,972
2024-05-09T08:55:51.859Z,996
2024-05-09T08:57:51.782Z,1024
2024-05-09T08:58:51.820Z,1039
2024-05-09T08:59:51.752Z,1052
2024-05-09T09:00:51.707Z,1057
2024-05-09T09:01:52.023Z,1047
2024-05-09T09:02:51.995Z,1055
2024-05-09T09:03:51.952Z,1046
2024-05-09T09:04:52.076Z,1065
2024-05-09T09:05:51.965Z,1064
2024-05-09T09:06:53.132Z,1072
2024-05-09T09:07:52.950Z,1074
2024-05-09T09:08:51.787Z,1072
2024-05-09T09:09:52.054Z,1093
2024-05-09T09:10:51.881Z,1099
2024-05-09T09:11:51.886Z,1106
2024-05-09T09:12:52.100Z,1111
2024-05-09T09:14:51.863Z,1124
2024-05-09T09:17:52.110Z,1161
2024-05-09T09:18:52.385Z,1173
2024-05-09T09:19:52.151Z,1182
2024-05-09T09:20:51.960Z,1189
2024-05-09T09:21:51.958Z,1191
2024-05-09T09:22:52.128Z,1191
2024-05-09T09:24:52.014Z,1196
2024-05-09T09:25:51.910Z,1203
2024-05-09T09:26:52.139Z,1221
2024-05-09T09:27:52.132Z,1228
2024-05-09T09:28:52.604Z,1229
2024-05-09T09:29:51.963Z,1228
2024-05-09T09:30:52.138Z,1227
2024-05-09T09:31:52.146Z,1223
2024-05-09T09:32:52.343Z,1221
2024-05-09T09:35:52.104Z,1237
2024-05-09T09:38:52.259Z,1246
2024-05-09T09:39:52.200Z,1248
2024-05-09T09:42:52.256Z,1261
2024-05-09T09:43:52.117Z,1264
2024-05-09T09:44:58.093Z,1269
2024-05-09T09:45:53.776Z,1269
2024-05-09T09:46:52.339Z,1280
2024-05-09T09:49:52.414Z,1310
2024-05-09T09:50:52.421Z,1319
2024-05-09T09:51:52.363Z,1333
2024-05-09T09:52:52.421Z,1351
2024-05-09T09:53:52.464Z,1366
2024-05-09T09:55:52.358Z,1391
2024-05-09T09:56:52.527Z,1395
2024-05-09T09:57:52.325Z,1397
2024-05-09T09:58:53.536Z,1405
2024-05-09T09:59:52.315Z,1410
2024-05-09T10:00:52.501Z,1416
2024-05-09T10:01:52.477Z,1429
2024-05-09T10:02:52.390Z,1436
2024-05-09T10:03:52.538Z,1439
2024-05-09T10:06:52.897Z,1450
2024-05-09T10:07:52.438Z,1455
2024-05-09T10:08:52.526Z,1457
2024-05-09T10:09:52.587Z,1458
2024-05-09T10:10:52.858Z,1464
2024-05-09T10:11:57.981Z,1467
2024-05-09T10:12:53.581Z,1471
2024-05-09T10:13:52.559Z,1475
2024-05-09T10:14:52.737Z,1481
2024-05-09T10:15:52.911Z,1481
2024-05-09T10:16:52.745Z,1489
2024-05-09T10:17:52.990Z,1491
2024-05-09T10:18:52.987Z,1496
2024-05-09T10:20:52.593Z,1522
2024-05-09T10:21:52.835Z,1538
2024-05-09T10:22:52.609Z,1552
2024-05-09T10:23:52.735Z,1570
2024-05-09T10:24:52.931Z,1578
2024-05-09T10:25:52.699Z,1593
2024-05-09T10:26:53.343Z,1599
2024-05-09T10:27:52.996Z,1611
2024-05-09T10:28:52.908Z,1625
2024-05-09T10:29:52.752Z,1636
2024-05-09T10:30:52.747Z,1646
2024-05-09T10:33:53.293Z,1682
2024-05-09T10:34:53.148Z,1692
2024-05-09T10:35:52.889Z,1697
2024-05-09T10:36:52.956Z,1708
2024-05-09T10:37:52.960Z,1716
2024-05-09T10:39:53.079Z,1720
2024-05-09T10:40:52.998Z,1729
2024-05-09T10:41:52.934Z,1740
2024-05-09T10:42:52.987Z,1760
2024-05-09T10:43:53.062Z,1787
2024-05-09T10:44:54.592Z,1813
2024-05-09T10:45:53.111Z,1833
2024-05-09T10:46:53.915Z,1838
2024-05-09T10:47:53.151Z,1846
2024-05-09T10:48:52.881Z,1852
2024-05-09T10:49:52.913Z,1865
2024-05-09T10:50:53.100Z,1882
2024-05-09T10:51:52.809Z,1893
2024-05-09T10:52:52.845Z,1904
2024-05-09T10:53:52.850Z,1912
2024-05-09T10:54:52.990Z,1918
2024-05-09T10:55:53.175Z,1938
2024-05-09T10:56:53.286Z,1956
2024-05-09T10:57:53.234Z,1962
2024-05-09T11:01:53.259Z,2016
2024-05-09T11:02:53.089Z,2019
2024-05-09T11:03:53.072Z,2025
2024-05-09T11:04:53.370Z,2023
2024-05-09T11:05:53.274Z,2020
2024-05-09T11:06:53.334Z,2035
2024-05-09T11:09:53.202Z,2031
2024-05-09T11:10:53.279Z,2078
2024-05-09T11:11:53.163Z,2224
2024-05-09T11:12:53.124Z,2267
2024-05-09T11:13:53.333Z,2258
2024-05-09T11:15:53.269Z,2108
2024-05-09T11:16:53.225Z,2193
2024-05-09T11:17:53.285Z,2217
2024-05-09T11:18:53.317Z,2239
2024-05-09T11:20:53.226Z,2291
2024-05-09T11:21:53.318Z,2299
2024-05-09T11:23:53.237Z,2351
2024-05-09T11:24:53.288Z,2403
2024-05-09T11:25:53.448Z,2498
2024-05-09T11:26:53.404Z,2482
2024-05-09T11:27:53.290Z,2682
2024-05-09T11:28:53.285Z,2766
2024-05-09T11:29:53.441Z,3156
2024-05-09T11:30:53.385Z,3152
2024-05-09T11:31:53.349Z,3073
2024-05-09T11:32:53.621Z,3164
2024-05-09T11:35:53.358Z,4173
2024-05-09T11:36:53.506Z,4504
2024-05-09T11:37:53.388Z,4943
2024-05-09T11:38:53.331Z,4985
2024-05-09T11:39:53.580Z,4715
2024-05-09T11:40:53.382Z,4137
2024-05-09T11:41:53.434Z,4174
2024-05-09T11:42:53.719Z,4663
2024-05-09T11:43:53.352Z,5137
2024-05-09T11:44:53.395Z,5818
2024-05-09T11:45:54.136Z,5278
2024-05-09T11:46:54.206Z,4054
2024-05-09T11:47:53.815Z,3317
2024-05-09T11:48:53.748Z,3247
2024-05-09T11:49:53.984Z,3248
2024-05-09T11:52:54.085Z,5101
2024-05-09T11:53:54.202Z,5722
2024-05-09T11:55:53.734Z,4894
2024-05-09T11:56:53.895Z,5382
2024-05-09T11:57:54.143Z,35680
2024-05-09T12:00:53.779Z,8031
2024-05-09T12:01:53.952Z,7995
2024-05-09T12:02:53.969Z,31208
2024-05-09T12:03:54.131Z,20208
2024-05-09T12:06:54.310Z,9450
2024-05-09T12:07:53.858Z,7711
2024-05-09T12:08:53.880Z,6579
2024-05-09T12:09:54.172Z,5323
2024-05-09T12:12:53.899Z,5192
2024-05-09T12:13:53.990Z,5540
2024-05-09T12:14:53.932Z,5602
2024-05-09T12:15:53.800Z,5625
2024-05-09T12:16:53.981Z,6472
2024-05-09T12:17:54.973Z,6914
2024-05-09T12:18:54.078Z,6011
2024-05-09T12:19:53.909Z,4960
2024-05-09T12:20:53.972Z,4625
2024-05-09T12:21:53.996Z,4350
2024-05-09T12:22:54.034Z,4267
2024-05-09T12:23:53.885Z,4735
2024-05-09T12:24:53.979Z,5429
2024-05-09T12:25:53.990Z,5109
2024-05-09T12:26:54.539Z,5077
2024-05-09T12:27:54.116Z,5513
2024-05-09T12:28:54.899Z,5584
2024-05-09T12:29:54.354Z,5708
2024-05-09T12:30:54.724Z,5872
2024-05-09T12:31:54.897Z,6326
2024-05-09T12:34:54.011Z,8263
2024-05-09T12:35:54.285Z,11139
2024-05-09T12:36:54.157Z,15560
2024-05-09T12:37:54.131Z,65535
2024-05-09T12:38:54.153Z,65535
2024-05-09T12:41:54.058Z,65535
2024-05-09T12:42:54.234Z,65535
2024-05-09T12:43:54.398Z,65535
2024-05-09T12:44:55.002Z,65535
2024-05-09T12:45:54.926Z,65535
2024-05-09T12:46:54.253Z,65535
2024-05-09T12:47:54.949Z,65535
2024-05-09T12:48:54.487Z,65535
2024-05-09T12:49:54.381Z,65535
2024-05-09T12:52:54.113Z,65535
2024-05-09T12:53:54.131Z,65535
2024-05-09T12:54:54.245Z,65535
2024-05-09T12:55:57.087Z,65535
2024-05-09T12:56:55.242Z,65535
2024-05-09T12:57:54.329Z,65535
2024-05-09T12:58:54.318Z,65535
2024-05-09T12:59:55.375Z,65535
2024-05-09T13:00:54.608Z,65535
2024-05-09T13:01:55.918Z,65535
2024-05-09T13:02:56.088Z,50992
2024-05-09T13:03:55.203Z,56368
2024-05-09T13:04:54.370Z,65535
2024-05-09T13:05:54.424Z,61560
2024-05-09T13:06:54.524Z,42784
2024-05-09T13:07:54.353Z,48296
2024-05-09T13:09:54.346Z,46224
2024-05-09T13:10:54.196Z,65535
2024-05-09T13:11:54.228Z,65535
2024-05-09T13:12:54.195Z,65535
2024-05-09T13:13:54.389Z,65535
2024-05-09T13:14:54.215Z,65535
2024-05-09T13:15:54.352Z,65535
2024-05-09T13:16:54.334Z,65535
2024-05-09T13:19:54.336Z,65535
2024-05-09T13:20:54.353Z,65535
2024-05-09T13:21:54.387Z,65535
2024-05-09T13:22:54.463Z,65535
2024-05-09T13:23:55.257Z,65535
2024-05-09T13:24:55.427Z,65535
2024-05-09T13:25:54.386Z,19152
2024-05-09T13:26:54.417Z,7241
2024-05-09T13:27:54.542Z,8076
2024-05-09T13:28:54.744Z,14036
2024-05-09T13:29:54.483Z,52416
2024-05-09T13:30:54.549Z,65535
2024-05-09T13:32:54.365Z,65535
2024-05-09T13:33:55.484Z,65535
2024-05-09T13:34:54.449Z,65535
2024-05-09T13:35:54.506Z,65535
2024-05-09T13:36:54.612Z,65535
2024-05-09T13:37:54.486Z,65535
2024-05-09T13:38:54.450Z,65535
2024-05-09T13:39:54.505Z,65535
2024-05-09T13:40:54.680Z,65535
2024-05-09T13:41:54.551Z,65535
2024-05-09T13:42:54.672Z,65535
2024-05-09T13:43:54.615Z,65535
2024-05-09T13:44:54.751Z,65535
2024-05-09T13:45:54.599Z,63816
2024-05-09T13:46:54.591Z,62696
2024-05-09T13:47:54.689Z,65535
2024-05-09T13:48:54.698Z,65535
2024-05-09T13:49:54.691Z,65535
2024-05-09T13:50:54.574Z,65535
2024-05-09T13:51:54.679Z,65535
2024-05-09T13:53:54.589Z,65535
2024-05-09T13:54:55.007Z,63112
2024-05-09T13:55:54.716Z,62088
2024-05-09T13:56:54.549Z,63440
2024-05-09T13:57:54.718Z,65192
2024-05-09T13:58:54.749Z,65535
2024-05-09T13:59:54.686Z,65535
2024-05-09T14:00:54.973Z,65535
2024-05-09T14:02:54.807Z,65535
2024-05-09T14:03:54.889Z,65535
2024-05-09T14:04:55.027Z,62920
2024-05-09T14:06:54.737Z,62384
2024-05-09T14:07:54.716Z,53752
2024-05-09T14:08:54.658Z,60360
2024-05-09T14:09:54.737Z,60720
2024-05-09T14:10:54.748Z,10557
2024-05-09T14:11:54.816Z,60752
2024-05-09T14:12:54.865Z,44552
2024-05-09T14:13:54.840Z,58328
2024-05-09T14:14:54.901Z,64272
2024-05-09T14:15:54.969Z,52104
2024-05-09T14:18:54.874Z,5884
2024-05-09T14:19:54.888Z,6564
2024-05-09T14:20:54.776Z,6711
2024-05-09T14:21:55.120Z,45128
2024-05-09T14:22:54.851Z,56872
2024-05-09T14:23:55.887Z,57024
2024-05-09T14:24:55.170Z,58008
2024-05-09T14:25:55.206Z,57752
2024-05-09T14:27:54.965Z,55776
2024-05-09T14:28:54.956Z,57552
2024-05-09T14:29:54.999Z,56120
2024-05-09T14:30:55.035Z,58672
2024-05-09T14:31:55.255Z,60392
2024-05-09T14:32:55.184Z,56328
2024-05-09T14:33:55.437Z,52000
2024-05-09T14:34:54.946Z,49696
2024-05-09T14:35:54.995Z,48736
2024-05-09T14:36:55.059Z,49904
2024-05-09T14:37:55.038Z,52424
2024-05-09T14:38:54.974Z,52736
2024-05-09T14:39:54.996Z,47896
2024-05-09T14:40:55.362Z,40256
2024-05-09T14:41:54.955Z,33000
2024-05-09T14:42:55.098Z,24552
2024-05-09T14:43:56.067Z,18496
2024-05-09T14:44:55.169Z,14464
2024-05-09T14:45:55.227Z,13016
2024-05-09T14:46:55.139Z,12480
2024-05-09T14:47:55.191Z,12056
2024-05-09T14:48:55.222Z,11904
2024-05-09T14:50:55.147Z,11232
2024-05-09T14:51:55.063Z,10708
2024-05-09T14:52:55.135Z,10539
2024-05-09T14:53:55.148Z,10311
2024-05-09T14:54:59.989Z,10087
2024-05-09T14:55:56.241Z,9954
2024-05-09T14:56:55.174Z,9786
2024-05-09T14:57:55.254Z,9775
2024-05-09T14:58:56.119Z,9599
2024-05-09T14:59:55.142Z,9554
2024-05-09T15:00:55.374Z,9465
2024-05-09T15:01:55.227Z,9386
2024-05-09T15:02:55.193Z,9322
2024-05-09T15:05:55.395Z,9026
2024-05-09T15:07:55.346Z,8815
2024-05-09T15:08:55.456Z,8761
2024-05-09T15:10:55.433Z,8501
2024-05-09T15:11:55.312Z,8418
2024-05-09T15:12:55.343Z,8312
2024-05-09T15:13:55.274Z,8320
2024-05-09T15:14:55.362Z,8211
2024-05-09T15:18:55.576Z,8007
2024-05-09T15:21:55.773Z,7957
2024-05-09T15:22:55.329Z,7899
2024-05-09T15:23:55.268Z,7831
2024-05-09T15:24:55.378Z,7698
2024-05-09T15:27:55.278Z,7550
2024-05-09T15:28:55.503Z,7584
2024-05-09T15:29:55.951Z,7625
2024-05-09T15:30:55.417Z,7559
2024-05-09T15:31:55.546Z,7571
2024-05-09T15:32:55.504Z,7509
2024-05-09T15:33:55.477Z,7418
2024-05-09T15:34:55.549Z,7374
2024-05-09T15:35:55.627Z,7366
2024-05-09T15:36:55.680Z,7238
2024-05-09T15:37:55.583Z,7115
2024-05-09T15:38:55.728Z,7013
2024-05-09T15:39:55.627Z,6893
2024-05-09T15:40:55.961Z,6231
2024-05-09T15:41:55.798Z,6505
2024-05-09T15:43:55.714Z,5113
2024-05-09T15:44:55.668Z,3909
2024-05-09T15:45:55.720Z,3856
2024-05-09T15:46:55.701Z,3773
2024-05-09T15:47:55.725Z,3357
2024-05-09T15:48:55.875Z,3472
2024-05-09T15:49:55.951Z,3425
2024-05-09T15:50:55.733Z,3265
2024-05-09T15:51:55.725Z,3062
2024-05-09T15:52:55.779Z,2811
2024-05-09T15:53:55.797Z,2491
2024-05-09T15:54:55.921Z,2615
2024-05-09T15:57:55.862Z,2263
2024-05-09T15:58:55.925Z,2196
2024-05-09T15:59:55.780Z,2202
2024-05-09T16:00:56.100Z,2298
2024-05-09T16:01:55.987Z,2259
2024-05-09T16:02:55.982Z,2127
2024-05-09T16:03:56.104Z,2058
2024-05-09T16:04:56.054Z,2139
2024-05-09T16:05:55.920Z,1940
2024-05-09T16:06:55.985Z,1925
2024-05-09T16:07:55.970Z,1925
2024-05-09T16:08:55.993Z,1940
2024-05-09T16:10:56.035Z,1934
2024-05-09T16:11:56.148Z,1943
2024-05-09T16:12:56.178Z,2002
2024-05-09T16:13:56.100Z,2080
2024-05-09T16:14:56.161Z,2037
2024-05-09T16:16:56.092Z,1987
2024-05-09T16:17:57.342Z,1996
2024-05-09T16:18:56.000Z,1958
2024-05-09T16:19:56.140Z,1995
2024-05-09T16:20:56.120Z,1960